CanjetBLOCKVirtuelBLOCKQcBLOCKBLOCKBLOCKBLOCKBLOCKBLOCKBLOCKBLOCKBLOCKBLOCKBLOCKvolsBLOCKavecBLOCKFS-kACARS2020-10-21BLOCK03colon34am

volsBLOCKBLOCKBLOCKBLOCKBLOCKpilotesBLOCKBLOCKBLOCKBLOCKBLOCKBLOCKBLOCKBLOCKtypeBLOCKBLOCKdepBLOCKBLOCKarrBLOCKBLOCKBLOCKBLOCKBLOCKaltBLOCKBLOCKBLOCKBLOCKBLOCKgsBLOCKBLOCKBLOCKBLOCKstatut

cja9999Jean-PierreBLOCKAB738NZWN-NZCH0ft0ktsarrived
CJA602LucBLOCKBB738CYQB-MUCC0ft0ktsarrived
cja9999ClaudeBLOCKLB738TJSJ-CYUL0ft2kts04colon04am
CJA1186AndreBLOCKLB738TJSJ-CYUL0ft0ktsarrived
CJA9999RochBLOCKJB788CYUL-LFPG0ft4kts03colon49am
cja9999PierreBLOCKDA320YMML-YPAD0ft2kts04colon04am







BLOCKAppuyerBLOCKsurBLOCKF5BLOCKpourBLOCKactualiserBLOCKBLOCKBLOCKMiseBLOCKaBLOCKjourcolonBLOCK03colon34colon40amCanjetBLOCKvirtuelBLOCKQC

Bienvenue chez Canjetvirtuel-Q

Publié par Michel Ayotte le 2013-06-14

 

Canjetvirtuel-Québec est une compagnie aérienne virtuelle qui a été fondée par 2 passionnés de la simulation de vol.

Elle est opérée avec les Boeing 737. Exceptionnelement et pour votre plaisir tous les autres versions de Boeing et Airbus sont autorisées.

Ces appareils pouvant faire des vols cargos ou des vols passagers, que ce soit au Canada, Europe, États-Unis, Mexique, Caraïbes et autres destinations mondiales.

Vous trouverez votre place comme pilote chez nous!



Avis

Aux fins de la simulation de vol seulement. CanjetVirtuel Québec n'est en aucun cas affilié avec n'importe quelle compagnie aérienne du monde réel. CanjetVirtuel Québec est un site à but non lucratif gérée par des amateurs de simulation de vol. Toutes les images sont la propriété exclusive de leurs propriétaires respectifs.
| propulsé par phpVMS, © 2013-2020.

Notice

For flight simulation purposes only. CanjetVirtuel Quebec is in no way affiliated with any real world airline. CanjetVirtuel Quebec is a non-profit site run by flight simulation enthusiasts. All images are the sole property of their respective owners.
| powered by phpVMS, © 2013-2020.

Affiliations

Vatsim

Les statistiques du site

Nombre de pilotes: 15
Total des vols effectués: 6940
Trajets disponibles: 682
Passagers transportés: 1841444
Total des heures de vol: 23184
Distance totale (NM): 9047003
Pilotes en ligne: 0

Nouvelles

Bienvenue chez Canjetvirtuel-Q
06/14/2013

METAR

CYHZ 210715Z 36002KT 3SM -RA BR BKN005 OVC027 12/12 A3036 RMK SF6SC2 SLP283

CYQB 210700Z 05007KT 15SM SCT035 03/00 A3042 RMK SC3 SLP307

CYUL 210700Z 05010G16KT 15SM SCT028 OVC080 06/02 A3033 RMK SC4AC4 SLP272

CYYZ 210700Z 12012G20KT 3SM -RA BR OVC006 09/09 A3007 RMK ST8 PRESFR SLP188